createdAt,value
2017-03-09T00:00:02.729Z,868.68
2017-03-09T00:00:07.084Z,868.67
2017-03-09T00:00:11.608Z,868.66
2017-03-09T00:00:16.260Z,868.71
2017-03-09T00:00:20.763Z,868.74
2017-03-09T00:00:25.268Z,868.73
2017-03-09T00:00:29.914Z,868.71
2017-03-09T00:00:34.420Z,868.75
2017-03-09T00:00:39.068Z,868.74
2017-03-09T00:00:43.551Z,868.73
2017-03-09T00:00:48.217Z,868.73
2017-03-09T00:00:52.873Z,868.73
2017-03-09T00:00:57.519Z,868.73
2017-03-09T00:01:02.013Z,868.75
2017-03-09T00:01:06.679Z,868.74
2017-03-09T00:01:11.026Z,868.78
2017-03-09T00:01:15.664Z,868.76
2017-03-09T00:01:20.007Z,868.76
2017-03-09T00:01:24.653Z,868.78
2017-03-09T00:01:29.295Z,868.76
2017-03-09T00:01:33.782Z,868.78
2017-03-09T00:01:38.286Z,868.76
2017-03-09T00:01:42.940Z,868.74
2017-03-09T00:01:47.590Z,868.74
2017-03-09T00:01:52.241Z,868.8
2017-03-09T00:01:56.889Z,868.79
2017-03-09T00:02:01.807Z,868.75
2017-03-09T00:02:06.154Z,868.8
2017-03-09T00:02:10.800Z,868.81
2017-03-09T00:02:15.448Z,868.78
2017-03-09T00:02:20.080Z,868.8
2017-03-09T00:02:24.602Z,868.79
2017-03-09T00:02:29.250Z,868.79
2017-03-09T00:02:33.754Z,868.82
2017-03-09T00:02:38.387Z,868.84
2017-03-09T00:02:42.875Z,868.81
2017-03-09T00:02:47.376Z,868.8
2017-03-09T00:02:52.024Z,868.82
2017-03-09T00:02:56.522Z,868.82
2017-03-09T00:03:01.182Z,868.8
2017-03-09T00:03:05.913Z,868.82
2017-03-09T00:03:10.398Z,868.85
2017-03-09T00:03:15.054Z,868.82
2017-03-09T00:03:19.708Z,868.85
2017-03-09T00:03:24.106Z,868.81
2017-03-09T00:03:28.595Z,868.79
2017-03-09T00:03:33.249Z,868.81
2017-03-09T00:03:37.879Z,868.83
2017-03-09T00:03:42.554Z,868.83
2017-03-09T00:03:47.224Z,868.83
2017-03-09T00:03:51.851Z,868.84
2017-03-09T00:03:56.511Z,868.79
2017-03-09T00:04:01.196Z,868.85
2017-03-09T00:04:05.835Z,868.86
2017-03-09T00:04:10.339Z,868.86
2017-03-09T00:04:14.825Z,868.85
2017-03-09T00:04:19.329Z,868.87
2017-03-09T00:04:23.989Z,868.87
2017-03-09T00:04:28.618Z,868.84
2017-03-09T00:04:33.280Z,868.86
2017-03-09T00:04:37.936Z,868.85
2017-03-09T00:04:42.589Z,868.85
2017-03-09T00:04:47.224Z,868.88
2017-03-09T00:04:51.719Z,868.85
2017-03-09T00:04:56.370Z,868.86
2017-03-09T00:05:01.014Z,868.87
2017-03-09T00:05:05.736Z,868.84
2017-03-09T00:05:10.383Z,868.88
2017-03-09T00:05:15.071Z,868.87
2017-03-09T00:05:19.596Z,868.86
2017-03-09T00:05:24.096Z,868.84
2017-03-09T00:05:28.734Z,868.85
2017-03-09T00:05:33.111Z,868.9
2017-03-09T00:05:37.755Z,868.86
2017-03-09T00:05:42.115Z,868.87
2017-03-09T00:05:46.765Z,868.89
2017-03-09T00:05:51.406Z,868.85
2017-03-09T00:05:56.028Z,868.87
2017-03-09T00:06:00.669Z,868.91
2017-03-09T00:06:05.472Z,868.89
2017-03-09T00:06:09.962Z,868.86
2017-03-09T00:06:14.447Z,868.87
2017-03-09T00:06:18.797Z,868.88
2017-03-09T00:06:23.446Z,868.91
2017-03-09T00:06:27.805Z,868.93
2017-03-09T00:06:32.455Z,868.91
2017-03-09T00:06:37.107Z,868.92
2017-03-09T00:06:41.752Z,868.91
2017-03-09T00:06:46.248Z,868.92
2017-03-09T00:06:50.734Z,868.9
2017-03-09T00:06:55.377Z,868.93
2017-03-09T00:06:59.897Z,868.93
2017-03-09T00:07:04.546Z,868.94
2017-03-09T00:07:09.183Z,868.91
2017-03-09T00:07:13.824Z,868.93
2017-03-09T00:07:18.479Z,868.93
2017-03-09T00:07:23.114Z,868.91
2017-03-09T00:07:27.595Z,868.92
2017-03-09T00:07:32.086Z,868.96
2017-03-09T00:07:36.721Z,868.93
2017-03-09T00:07:41.212Z,868.92
2017-03-09T00:07:45.740Z,868.96
2017-03-09T00:07:50.383Z,868.93
2017-03-09T00:07:55.015Z,868.93
2017-03-09T00:07:59.642Z,868.94
2017-03-09T00:08:04.143Z,868.95
2017-03-09T00:08:08.770Z,868.97
2017-03-09T00:08:13.416Z,868.91
2017-03-09T00:08:17.776Z,868.93
2017-03-09T00:08:22.443Z,868.95
2017-03-09T00:08:26.969Z,868.93
2017-03-09T00:08:31.314Z,868.97
2017-03-09T00:08:35.948Z,868.94
2017-03-09T00:08:40.575Z,868.94
2017-03-09T00:08:45.237Z,868.92
2017-03-09T00:08:49.882Z,868.97
2017-03-09T00:08:54.549Z,868.96
2017-03-09T00:08:59.066Z,868.97
2017-03-09T00:09:03.725Z,869
2017-03-09T00:09:08.227Z,868.97
2017-03-09T00:09:12.866Z,868.99
2017-03-09T00:09:17.416Z,868.97
2017-03-09T00:09:21.920Z,869.01
2017-03-09T00:09:26.572Z,868.99
2017-03-09T00:09:31.199Z,869.01
2017-03-09T00:09:35.877Z,868.98
2017-03-09T00:09:40.408Z,868.99
2017-03-09T00:09:44.914Z,869
2017-03-09T00:09:49.544Z,869
2017-03-09T00:09:54.177Z,869.02
2017-03-09T00:09:58.831Z,869.01
2017-03-09T00:10:03.474Z,869.01
2017-03-09T00:10:08.137Z,869.01
2017-03-09T00:10:12.485Z,869
2017-03-09T00:10:17.126Z,868.95
2017-03-09T00:10:21.641Z,868.99
2017-03-09T00:10:26.282Z,869.05
2017-03-09T00:10:30.626Z,869.04
2017-03-09T00:10:35.294Z,869.02
2017-03-09T00:10:39.949Z,869.03
2017-03-09T00:10:44.586Z,868.98
2017-03-09T00:10:49.088Z,869.05
2017-03-09T00:10:53.730Z,869.01
2017-03-09T00:10:58.221Z,869
2017-03-09T00:11:02.734Z,869.02
2017-03-09T00:11:07.395Z,869.02
2017-03-09T00:11:12.047Z,869.04
2017-03-09T00:11:16.696Z,869.03
2017-03-09T00:11:21.340Z,869.02
2017-03-09T00:11:25.962Z,869.03
2017-03-09T00:11:30.633Z,869.08
2017-03-09T00:11:35.282Z,869.04
2017-03-09T00:11:39.934Z,869
2017-03-09T00:11:44.577Z,869.03
2017-03-09T00:11:49.241Z,869.06
2017-03-09T00:11:53.895Z,869.06
2017-03-09T00:11:58.539Z,869.04
2017-03-09T00:12:03.201Z,869.06
2017-03-09T00:12:07.555Z,869.07
2017-03-09T00:12:12.042Z,869.07
2017-03-09T00:12:16.550Z,869.07
2017-03-09T00:12:21.048Z,869.04
2017-03-09T00:12:25.696Z,869.06
2017-03-09T00:12:30.332Z,869.04
2017-03-09T00:12:34.682Z,869.07
2017-03-09T00:12:39.322Z,869.05
2017-03-09T00:12:43.989Z,869.05
2017-03-09T00:12:48.638Z,869.06
2017-03-09T00:12:53.300Z,869.08
2017-03-09T00:12:57.937Z,869.07
2017-03-09T00:13:02.590Z,869.05
2017-03-09T00:13:07.237Z,869.11
2017-03-09T00:13:11.728Z,869.09
2017-03-09T00:13:16.378Z,869.11
2017-03-09T00:13:21.031Z,869.08
2017-03-09T00:13:25.536Z,869.06
2017-03-09T00:13:30.198Z,869.04
2017-03-09T00:13:34.702Z,869.09
2017-03-09T00:13:39.338Z,869.09
2017-03-09T00:13:43.996Z,869.12
2017-03-09T00:13:48.503Z,869.07
2017-03-09T00:13:53.002Z,869.1
2017-03-09T00:13:57.643Z,869.11
2017-03-09T00:14:02.647Z,869.12
2017-03-09T00:14:07.284Z,869.08
2017-03-09T00:14:11.914Z,869.11
2017-03-09T00:14:16.442Z,869.11
2017-03-09T00:14:21.114Z,869.1
2017-03-09T00:14:25.782Z,869.1
2017-03-09T00:14:30.277Z,869.12
2017-03-09T00:14:34.788Z,869.13
2017-03-09T00:14:39.430Z,869.11
2017-03-09T00:14:43.941Z,869.14
2017-03-09T00:14:48.606Z,869.13
2017-03-09T00:14:53.239Z,869.1
2017-03-09T00:14:57.872Z,869.09
2017-03-09T00:15:02.521Z,869.09
2017-03-09T00:15:07.184Z,869.09
2017-03-09T00:15:11.676Z,869.1
2017-03-09T00:15:16.327Z,869.13
2017-03-09T00:15:20.677Z,869.12
2017-03-09T00:15:25.320Z,869.16
2017-03-09T00:15:29.969Z,869.14
2017-03-09T00:15:34.620Z,869.12
2017-03-09T00:15:39.253Z,869.15
2017-03-09T00:15:43.898Z,869.14
2017-03-09T00:15:48.387Z,869.1
2017-03-09T00:15:53.027Z,869.14
2017-03-09T00:15:57.671Z,869.14
2017-03-09T00:16:02.319Z,869.1
2017-03-09T00:16:06.983Z,869.07
2017-03-09T00:16:11.179Z,869.07
2017-03-09T00:16:15.676Z,869.1
2017-03-09T00:16:20.322Z,869.09
2017-03-09T00:16:24.963Z,869.13
2017-03-09T00:16:29.603Z,869.13
2017-03-09T00:16:34.236Z,869.13
2017-03-09T00:16:38.578Z,869.11
2017-03-09T00:16:43.070Z,869.12
2017-03-09T00:16:47.414Z,869.11
2017-03-09T00:16:51.919Z,869.11
2017-03-09T00:16:56.577Z,869.12
2017-03-09T00:17:01.210Z,869.14
2017-03-09T00:17:05.748Z,869.13
2017-03-09T00:17:10.295Z,869.16
2017-03-09T00:17:14.789Z,869.14
2017-03-09T00:17:19.323Z,869.13
2017-03-09T00:17:23.986Z,869.11
2017-03-09T00:17:28.488Z,869.12
2017-03-09T00:17:32.998Z,869.11
2017-03-09T00:17:37.653Z,869.1
2017-03-09T00:17:42.295Z,869.09
2017-03-09T00:17:46.809Z,869.09
2017-03-09T00:17:51.478Z,869.14
2017-03-09T00:17:55.959Z,869.13
2017-03-09T00:18:00.587Z,869.11
2017-03-09T00:18:05.252Z,869.13
2017-03-09T00:18:09.739Z,869.13
2017-03-09T00:18:14.371Z,869.13
2017-03-09T00:18:18.875Z,869.16
2017-03-09T00:18:23.413Z,869.12
2017-03-09T00:18:28.078Z,869.09
2017-03-09T00:18:32.722Z,869.1
2017-03-09T00:18:37.361Z,869.11
2017-03-09T00:18:42.010Z,869.14
2017-03-09T00:18:46.664Z,869.15
2017-03-09T00:18:51.334Z,869.12
2017-03-09T00:18:55.978Z,869.11
2017-03-09T00:19:00.629Z,869.1
2017-03-09T00:19:05.280Z,869.09
2017-03-09T00:19:09.929Z,869.08
2017-03-09T00:19:14.436Z,869.07
2017-03-09T00:19:19.070Z,869.11
2017-03-09T00:19:23.707Z,869.09
2017-03-09T00:19:28.359Z,869.09
2017-03-09T00:19:33.020Z,869.12
2017-03-09T00:19:37.703Z,869.12
2017-03-09T00:19:42.203Z,869.11
2017-03-09T00:19:46.848Z,869.09
2017-03-09T00:19:51.376Z,869.1
2017-03-09T00:19:56.019Z,869.11
2017-03-09T00:20:00.683Z,869.12
2017-03-09T00:20:05.508Z,869.11
2017-03-09T00:20:10.000Z,869.13
2017-03-09T00:20:14.335Z,869.13
2017-03-09T00:20:18.980Z,869.11
2017-03-09T00:20:23.622Z,869.16
2017-03-09T00:20:28.269Z,869.14
2017-03-09T00:20:32.773Z,869.12
2017-03-09T00:20:37.419Z,869.12
2017-03-09T00:20:41.764Z,869.14
2017-03-09T00:20:46.272Z,869.1
2017-03-09T00:20:50.924Z,869.13
2017-03-09T00:20:55.596Z,869.14
2017-03-09T00:21:00.118Z,869.13
2017-03-09T00:21:04.900Z,869.14
2017-03-09T00:21:09.558Z,869.13
2017-03-09T00:21:14.221Z,869.12
2017-03-09T00:21:18.727Z,869.12
2017-03-09T00:21:23.372Z,869.13
2017-03-09T00:21:28.017Z,869.16
2017-03-09T00:21:32.645Z,869.13
2017-03-09T00:21:37.142Z,869.11
2017-03-09T00:21:41.642Z,869.14
2017-03-09T00:21:46.267Z,869.13
2017-03-09T00:21:50.776Z,869.1
2017-03-09T00:21:55.470Z,869.13
2017-03-09T00:22:00.118Z,869.15
2017-03-09T00:22:04.615Z,869.1
2017-03-09T00:22:08.954Z,869.11
2017-03-09T00:22:13.592Z,869.12
2017-03-09T00:22:18.251Z,869.09
2017-03-09T00:22:22.930Z,869.11
2017-03-09T00:22:27.442Z,869.12
2017-03-09T00:22:32.079Z,869.09
2017-03-09T00:22:36.737Z,869.06
2017-03-09T00:22:41.232Z,869.08
2017-03-09T00:22:45.882Z,869.08
2017-03-09T00:22:50.537Z,869.06
2017-03-09T00:22:55.172Z,869.07
2017-03-09T00:22:59.815Z,869.1
2017-03-09T00:23:04.458Z,869.09
2017-03-09T00:23:09.110Z,869.07
2017-03-09T00:23:13.746Z,869.08
2017-03-09T00:23:18.417Z,869.03
2017-03-09T00:23:22.915Z,869.05
2017-03-09T00:23:27.439Z,869.07
2017-03-09T00:23:31.949Z,869.07
2017-03-09T00:23:36.596Z,869.05
2017-03-09T00:23:41.124Z,869.09
2017-03-09T00:23:45.787Z,869.03
2017-03-09T00:23:50.423Z,869.1
2017-03-09T00:23:54.921Z,869.06
2017-03-09T00:23:59.586Z,869.05
2017-03-09T00:24:04.543Z,869.07
2017-03-09T00:24:09.041Z,869.04
2017-03-09T00:24:13.379Z,869.05
2017-03-09T00:24:17.867Z,869.05
2017-03-09T00:24:22.526Z,869.07
2017-03-09T00:24:27.164Z,869.07
2017-03-09T00:24:31.657Z,869.06
2017-03-09T00:24:36.290Z,869.06
2017-03-09T00:24:40.949Z,869.08
2017-03-09T00:24:45.603Z,869.06
2017-03-09T00:24:50.089Z,869.06
2017-03-09T00:24:54.607Z,869.04
2017-03-09T00:24:59.276Z,869.03
2017-03-09T00:25:04.072Z,869.05
2017-03-09T00:25:08.565Z,869.04
2017-03-09T00:25:13.213Z,869.04
2017-03-09T00:25:17.557Z,869.04
2017-03-09T00:25:22.059Z,869.04
2017-03-09T00:25:26.708Z,869.04
2017-03-09T00:25:31.374Z,869.07
2017-03-09T00:25:36.010Z,869.05
2017-03-09T00:25:40.504Z,869.04
2017-03-09T00:25:45.136Z,869.03
2017-03-09T00:25:49.788Z,869.03
2017-03-09T00:25:54.447Z,869.03
2017-03-09T00:25:59.095Z,869.02
2017-03-09T00:26:03.629Z,869.03
2017-03-09T00:26:08.273Z,869.04
2017-03-09T00:26:12.903Z,869.04
2017-03-09T00:26:17.570Z,869.04
2017-03-09T00:26:22.233Z,869.02
2017-03-09T00:26:26.885Z,869
2017-03-09T00:26:31.251Z,869.04
2017-03-09T00:26:35.892Z,869.04
2017-03-09T00:26:40.544Z,869.03
2017-03-09T00:26:45.197Z,869.02
2017-03-09T00:26:49.692Z,869.01
2017-03-09T00:26:54.043Z,869.01
2017-03-09T00:26:58.697Z,869
2017-03-09T00:27:03.355Z,868.97
2017-03-09T00:27:07.855Z,869.03
2017-03-09T00:27:12.195Z,869.02
2017-03-09T00:27:16.839Z,869.02
2017-03-09T00:27:21.349Z,869.04
2017-03-09T00:27:25.976Z,869.06
2017-03-09T00:27:30.630Z,868.98
2017-03-09T00:27:35.258Z,868.99
2017-03-09T00:27:39.920Z,869.03
2017-03-09T00:27:44.564Z,869.02
2017-03-09T00:27:49.069Z,869.07
2017-03-09T00:27:53.553Z,869.06
2017-03-09T00:27:58.053Z,869.05
2017-03-09T00:28:02.694Z,869.08
2017-03-09T00:28:07.338Z,869.07
2017-03-09T00:28:11.553Z,869.06
2017-03-09T00:28:16.044Z,869.1
2017-03-09T00:28:20.685Z,869.07
2017-03-09T00:28:25.165Z,869.01
2017-03-09T00:28:29.817Z,869.08
2017-03-09T00:28:34.308Z,869.08
2017-03-09T00:28:38.819Z,869.05
2017-03-09T00:28:43.455Z,869.07
2017-03-09T00:28:48.081Z,869.07
2017-03-09T00:28:52.575Z,869.04
2017-03-09T00:28:57.218Z,869.07
2017-03-09T00:29:01.865Z,869.04
2017-03-09T00:29:06.718Z,869.09
2017-03-09T00:29:11.373Z,869.07
2017-03-09T00:29:16.001Z,869.04
2017-03-09T00:29:20.647Z,869.08
2017-03-09T00:29:25.153Z,869.06
2017-03-09T00:29:29.651Z,869.06
2017-03-09T00:29:34.157Z,869.06
2017-03-09T00:29:38.798Z,869.1
2017-03-09T00:29:43.314Z,869.12
2017-03-09T00:29:47.826Z,869.12
2017-03-09T00:29:52.482Z,869.1
2017-03-09T00:29:57.123Z,869.1
2017-03-09T00:30:01.763Z,869.1
2017-03-09T00:30:06.435Z,869.1
2017-03-09T00:30:10.944Z,869.12
2017-03-09T00:30:15.612Z,869.09
2017-03-09T00:30:20.247Z,869.09
2017-03-09T00:30:24.917Z,869.07
2017-03-09T00:30:29.575Z,869.01
2017-03-09T00:30:34.238Z,869.03
2017-03-09T00:30:38.912Z,869.02
2017-03-09T00:30:43.552Z,869.03
2017-03-09T00:30:48.045Z,869
2017-03-09T00:30:52.704Z,869.04
2017-03-09T00:30:57.212Z,869.05
2017-03-09T00:31:01.711Z,869.05
2017-03-09T00:31:06.423Z,869.02
2017-03-09T00:31:10.939Z,869.01
2017-03-09T00:31:15.570Z,869.02
2017-03-09T00:31:19.921Z,869.06
2017-03-09T00:31:24.459Z,869.02
2017-03-09T00:31:28.960Z,869.04
2017-03-09T00:31:33.593Z,869.09
2017-03-09T00:31:38.257Z,869.03
2017-03-09T00:31:42.898Z,869.05
2017-03-09T00:31:47.538Z,869.05
2017-03-09T00:31:52.051Z,869.06
2017-03-09T00:31:56.694Z,869.06
2017-03-09T00:32:01.194Z,869.06
2017-03-09T00:32:05.851Z,869.05
2017-03-09T00:32:10.347Z,869.06
2017-03-09T00:32:14.730Z,869.04
2017-03-09T00:32:19.227Z,869.03
2017-03-09T00:32:23.574Z,869.01
2017-03-09T00:32:28.217Z,868.99
2017-03-09T00:32:32.871Z,869.06
2017-03-09T00:32:37.527Z,869.02
2017-03-09T00:32:42.155Z,869.02
2017-03-09T00:32:46.834Z,869.04
2017-03-09T00:32:51.498Z,869.06
2017-03-09T00:32:56.145Z,869.05
2017-03-09T00:33:00.783Z,869.03
2017-03-09T00:33:05.737Z,869.01
2017-03-09T00:33:10.389Z,869.04
2017-03-09T00:33:15.025Z,869.06
2017-03-09T00:33:19.531Z,869.05
2017-03-09T00:33:24.168Z,869.02
2017-03-09T00:33:28.796Z,869.06
2017-03-09T00:33:33.445Z,869.04
2017-03-09T00:33:38.124Z,869.01
2017-03-09T00:33:42.784Z,868.99
2017-03-09T00:33:47.438Z,868.96
2017-03-09T00:33:52.098Z,868.99
2017-03-09T00:33:56.740Z,868.96
2017-03-09T00:34:01.240Z,869
2017-03-09T00:34:05.928Z,869
2017-03-09T00:34:10.469Z,868.98
2017-03-09T00:34:14.805Z,869.02
2017-03-09T00:34:19.443Z,869.01
2017-03-09T00:34:24.096Z,868.98
2017-03-09T00:34:28.757Z,868.98
2017-03-09T00:34:33.404Z,869.02
2017-03-09T00:34:38.059Z,868.98
2017-03-09T00:34:42.707Z,868.98
2017-03-09T00:34:47.363Z,868.99
2017-03-09T00:34:51.722Z,868.95
2017-03-09T00:34:56.378Z,869
2017-03-09T00:35:00.873Z,868.99
2017-03-09T00:35:05.364Z,868.99
2017-03-09T00:35:09.885Z,868.96
2017-03-09T00:35:14.368Z,868.99
2017-03-09T00:35:19.014Z,869
2017-03-09T00:35:23.649Z,868.97
2017-03-09T00:35:28.008Z,868.95
2017-03-09T00:35:32.664Z,868.96
2017-03-09T00:35:37.185Z,868.95
2017-03-09T00:35:41.688Z,869
2017-03-09T00:35:46.343Z,869
2017-03-09T00:35:50.982Z,869.05
2017-03-09T00:35:55.514Z,869.02
2017-03-09T00:36:00.165Z,869.01
2017-03-09T00:36:05.010Z,869.04
2017-03-09T00:36:09.679Z,869.03
2017-03-09T00:36:14.189Z,869.01
2017-03-09T00:36:18.831Z,869.01
2017-03-09T00:36:23.475Z,868.97
2017-03-09T00:36:28.153Z,869.02
2017-03-09T00:36:32.650Z,869
2017-03-09T00:36:37.301Z,869.01
2017-03-09T00:36:41.813Z,869.01
2017-03-09T00:36:46.448Z,869.01
2017-03-09T00:36:51.122Z,868.99
2017-03-09T00:36:55.463Z,868.98
2017-03-09T00:37:00.111Z,869
2017-03-09T00:37:04.639Z,869.03
2017-03-09T00:37:09.288Z,868.98
2017-03-09T00:37:13.786Z,868.98
2017-03-09T00:37:18.417Z,868.96
2017-03-09T00:37:22.937Z,868.99
2017-03-09T00:37:27.570Z,868.99
2017-03-09T00:37:32.220Z,869
2017-03-09T00:37:36.864Z,868.98
2017-03-09T00:37:41.504Z,868.97
2017-03-09T00:37:46.163Z,868.97
2017-03-09T00:37:50.818Z,868.95
2017-03-09T00:37:55.458Z,868.93
2017-03-09T00:38:00.095Z,868.94
2017-03-09T00:38:04.829Z,868.94
2017-03-09T00:38:09.356Z,868.96
2017-03-09T00:38:13.983Z,868.96
2017-03-09T00:38:18.615Z,868.95
2017-03-09T00:38:22.974Z,869
2017-03-09T00:38:27.629Z,869
2017-03-09T00:38:32.269Z,868.96
2017-03-09T00:38:36.931Z,868.99
2017-03-09T00:38:41.421Z,868.92
2017-03-09T00:38:46.061Z,868.98
2017-03-09T00:38:50.563Z,869
2017-03-09T00:38:54.920Z,868.98
2017-03-09T00:38:59.573Z,868.97
2017-03-09T00:39:04.219Z,869
2017-03-09T00:39:08.884Z,868.97
2017-03-09T00:39:13.530Z,868.91
2017-03-09T00:39:18.176Z,868.88
2017-03-09T00:39:22.814Z,868.9
2017-03-09T00:39:27.449Z,868.91
2017-03-09T00:39:31.946Z,868.87
2017-03-09T00:39:36.624Z,868.93
2017-03-09T00:39:41.109Z,868.93
2017-03-09T00:39:45.642Z,868.91
2017-03-09T00:39:50.292Z,868.94
2017-03-09T00:39:54.970Z,868.93
2017-03-09T00:39:59.645Z,868.96
2017-03-09T00:40:04.538Z,868.94
2017-03-09T00:40:09.182Z,868.96
2017-03-09T00:40:13.819Z,868.93
2017-03-09T00:40:18.462Z,868.96
2017-03-09T00:40:23.126Z,868.96
2017-03-09T00:40:27.771Z,868.94
2017-03-09T00:40:32.409Z,868.91
2017-03-09T00:40:37.039Z,868.96
2017-03-09T00:40:41.414Z,868.98
2017-03-09T00:40:45.754Z,868.94
2017-03-09T00:40:50.266Z,868.93
2017-03-09T00:40:54.789Z,868.96
2017-03-09T00:40:59.454Z,868.95
2017-03-09T00:41:04.146Z,868.95
2017-03-09T00:41:08.779Z,868.94
2017-03-09T00:41:13.259Z,868.95
2017-03-09T00:41:17.758Z,868.94
2017-03-09T00:41:22.439Z,868.95
2017-03-09T00:41:27.081Z,868.92
2017-03-09T00:41:31.705Z,868.93
2017-03-09T00:41:36.378Z,868.94
2017-03-09T00:41:41.017Z,868.94
2017-03-09T00:41:45.668Z,868.93
2017-03-09T00:41:50.159Z,868.95
2017-03-09T00:41:54.808Z,868.94
2017-03-09T00:41:59.447Z,868.95
2017-03-09T00:42:04.081Z,868.92
2017-03-09T00:42:08.433Z,868.91
2017-03-09T00:42:13.090Z,868.91
2017-03-09T00:42:17.432Z,868.9
2017-03-09T00:42:21.928Z,868.88
2017-03-09T00:42:26.615Z,868.91
2017-03-09T00:42:31.250Z,868.91
2017-03-09T00:42:35.740Z,868.92
2017-03-09T00:42:40.238Z,868.9
2017-03-09T00:42:44.888Z,868.91
2017-03-09T00:42:49.406Z,868.9
2017-03-09T00:42:53.903Z,868.91
2017-03-09T00:42:58.540Z,868.92
2017-03-09T00:43:03.229Z,868.89
2017-03-09T00:43:07.717Z,868.84
2017-03-09T00:43:12.364Z,868.85
2017-03-09T00:43:16.854Z,868.84
2017-03-09T00:43:21.487Z,868.86
2017-03-09T00:43:26.125Z,868.9
2017-03-09T00:43:30.762Z,868.89
2017-03-09T00:43:35.254Z,868.86
2017-03-09T00:43:39.749Z,868.87
2017-03-09T00:43:44.390Z,868.87
2017-03-09T00:43:49.027Z,868.89
2017-03-09T00:43:53.687Z,868.89
2017-03-09T00:43:58.320Z,868.9
2017-03-09T00:44:02.960Z,868.86
2017-03-09T00:44:07.344Z,868.88
2017-03-09T00:44:12.015Z,868.89
2017-03-09T00:44:16.657Z,868.89
2017-03-09T00:44:21.297Z,868.89
2017-03-09T00:44:25.965Z,868.86
2017-03-09T00:44:30.590Z,868.9
2017-03-09T00:44:35.241Z,868.87
2017-03-09T00:44:39.741Z,868.89
2017-03-09T00:44:44.389Z,868.86
2017-03-09T00:44:49.038Z,868.88
2017-03-09T00:44:53.695Z,868.88
2017-03-09T00:44:58.343Z,868.88
2017-03-09T00:45:03.006Z,868.87
2017-03-09T00:45:07.652Z,868.88
2017-03-09T00:45:12.299Z,868.88
2017-03-09T00:45:16.949Z,868.88
2017-03-09T00:45:21.437Z,868.87
2017-03-09T00:45:26.072Z,868.86
2017-03-09T00:45:30.718Z,868.85
2017-03-09T00:45:35.221Z,868.89
2017-03-09T00:45:39.862Z,868.86
2017-03-09T00:45:44.519Z,868.87
2017-03-09T00:45:49.004Z,868.89
2017-03-09T00:45:53.642Z,868.86
2017-03-09T00:45:58.280Z,868.85
2017-03-09T00:46:02.650Z,868.83
2017-03-09T00:46:07.136Z,868.81
2017-03-09T00:46:11.632Z,868.87
2017-03-09T00:46:16.282Z,868.85
2017-03-09T00:46:20.500Z,868.84
2017-03-09T00:46:25.169Z,868.89
2017-03-09T00:46:29.835Z,868.85
2017-03-09T00:46:34.356Z,868.85
2017-03-09T00:46:39.011Z,868.88
2017-03-09T00:46:43.652Z,868.85
2017-03-09T00:46:48.298Z,868.9
2017-03-09T00:46:52.940Z,868.88
2017-03-09T00:46:57.427Z,868.86
2017-03-09T00:47:02.226Z,868.89
2017-03-09T00:47:06.853Z,868.86
2017-03-09T00:47:11.486Z,868.91
2017-03-09T00:47:16.149Z,868.88
2017-03-09T00:47:20.531Z,868.89
2017-03-09T00:47:25.166Z,868.88
2017-03-09T00:47:29.663Z,868.89
2017-03-09T00:47:34.169Z,868.85
2017-03-09T00:47:38.813Z,868.85
2017-03-09T00:47:43.458Z,868.92
2017-03-09T00:47:47.967Z,868.89
2017-03-09T00:47:52.498Z,868.91
2017-03-09T00:47:57.133Z,868.91
2017-03-09T00:48:01.822Z,868.87
2017-03-09T00:48:06.308Z,868.87
2017-03-09T00:48:10.981Z,868.91
2017-03-09T00:48:15.503Z,868.92
2017-03-09T00:48:19.846Z,868.9
2017-03-09T00:48:24.464Z,868.91
2017-03-09T00:48:29.099Z,868.94
2017-03-09T00:48:33.607Z,868.94
2017-03-09T00:48:38.100Z,868.85
2017-03-09T00:48:42.757Z,868.88
2017-03-09T00:48:47.405Z,868.9
2017-03-09T00:48:52.035Z,868.9
2017-03-09T00:48:56.551Z,868.95
2017-03-09T00:49:01.190Z,868.96
2017-03-09T00:49:05.833Z,868.94
2017-03-09T00:49:10.475Z,868.91
2017-03-09T00:49:14.993Z,868.93
2017-03-09T00:49:19.492Z,868.9
2017-03-09T00:49:24.151Z,868.9
2017-03-09T00:49:28.794Z,868.94
2017-03-09T00:49:33.289Z,868.94
2017-03-09T00:49:37.778Z,868.91
2017-03-09T00:49:42.273Z,868.91
2017-03-09T00:49:46.910Z,868.91
2017-03-09T00:49:51.555Z,868.88
2017-03-09T00:49:56.190Z,868.93
2017-03-09T00:50:00.844Z,868.95
2017-03-09T00:50:05.435Z,868.91
2017-03-09T00:50:09.928Z,868.96
2017-03-09T00:50:14.270Z,868.95
2017-03-09T00:50:18.915Z,868.97
2017-03-09T00:50:23.574Z,868.98
2017-03-09T00:50:28.228Z,868.98
2017-03-09T00:50:32.866Z,868.99
2017-03-09T00:50:37.222Z,868.99
2017-03-09T00:50:41.719Z,868.98
2017-03-09T00:50:46.358Z,868.98
2017-03-09T00:50:51.010Z,868.99
2017-03-09T00:50:55.672Z,869
2017-03-09T00:51:00.323Z,869.01
2017-03-09T00:51:04.879Z,869
2017-03-09T00:51:09.387Z,868.98
2017-03-09T00:51:13.743Z,869.02
2017-03-09T00:51:17.951Z,869
2017-03-09T00:51:22.663Z,869.01
2017-03-09T00:51:27.158Z,869.02
2017-03-09T00:51:31.792Z,869.01
2017-03-09T00:51:36.302Z,869.03
2017-03-09T00:51:40.944Z,869.02
2017-03-09T00:51:45.591Z,869.01
2017-03-09T00:51:50.272Z,869.03
2017-03-09T00:51:54.901Z,869.03
2017-03-09T00:51:59.540Z,869.04
2017-03-09T00:52:03.898Z,869.04
2017-03-09T00:52:08.382Z,869.04
2017-03-09T00:52:12.872Z,869.05
2017-03-09T00:52:17.550Z,869.03
2017-03-09T00:52:22.212Z,869.03
2017-03-09T00:52:26.716Z,869.06
2017-03-09T00:52:31.384Z,869.07
2017-03-09T00:52:36.049Z,869.06
2017-03-09T00:52:40.724Z,869.08
2017-03-09T00:52:45.382Z,869.08
2017-03-09T00:52:50.020Z,869.06
2017-03-09T00:52:54.668Z,869.08
2017-03-09T00:52:59.318Z,869.08
2017-03-09T00:53:04.270Z,869.08
2017-03-09T00:53:08.620Z,869.07
2017-03-09T00:53:13.120Z,869.08
2017-03-09T00:53:17.471Z,869.08
2017-03-09T00:53:22.101Z,869.07
2017-03-09T00:53:26.738Z,869.08
2017-03-09T00:53:31.222Z,869.1
2017-03-09T00:53:35.865Z,869.11
2017-03-09T00:53:40.569Z,869.12
2017-03-09T00:53:45.204Z,869.13
2017-03-09T00:53:49.573Z,869.15
2017-03-09T00:53:54.225Z,869.15
2017-03-09T00:53:58.865Z,869.12
2017-03-09T00:54:03.369Z,869.17
2017-03-09T00:54:08.031Z,869.15
2017-03-09T00:54:12.544Z,869.16
2017-03-09T00:54:17.029Z,869.17
2017-03-09T00:54:21.682Z,869.18
2017-03-09T00:54:26.320Z,869.16
2017-03-09T00:54:30.828Z,869.19
2017-03-09T00:54:35.486Z,869.14
2017-03-09T00:54:39.976Z,869.17
2017-03-09T00:54:44.621Z,869.22
2017-03-09T00:54:49.113Z,869.21
2017-03-09T00:54:53.757Z,869.23
2017-03-09T00:54:58.405Z,869.23
2017-03-09T00:55:03.351Z,869.22
2017-03-09T00:55:07.691Z,869.26
2017-03-09T00:55:12.061Z,869.26
2017-03-09T00:55:16.557Z,869.25
2017-03-09T00:55:21.081Z,869.24
2017-03-09T00:55:25.734Z,869.23
2017-03-09T00:55:30.392Z,869.24
2017-03-09T00:55:35.074Z,869.24
2017-03-09T00:55:39.572Z,869.26
2017-03-09T00:55:44.071Z,869.24
2017-03-09T00:55:48.715Z,869.2
2017-03-09T00:55:53.363Z,869.26
2017-03-09T00:55:58.010Z,869.25
2017-03-09T00:56:02.710Z,869.24
2017-03-09T00:56:07.065Z,869.26
2017-03-09T00:56:11.568Z,869.27
2017-03-09T00:56:16.209Z,869.25
2017-03-09T00:56:20.921Z,869.22
2017-03-09T00:56:25.583Z,869.25
2017-03-09T00:56:30.206Z,869.21
2017-03-09T00:56:34.710Z,869.26
2017-03-09T00:56:39.335Z,869.3
2017-03-09T00:56:43.989Z,869.31
2017-03-09T00:56:48.627Z,869.27
2017-03-09T00:56:53.262Z,869.28
2017-03-09T00:56:57.908Z,869.27
2017-03-09T00:57:02.552Z,869.27
2017-03-09T00:57:06.926Z,869.27
2017-03-09T00:57:11.422Z,869.27
2017-03-09T00:57:15.917Z,869.27
2017-03-09T00:57:20.547Z,869.26
2017-03-09T00:57:25.199Z,869.33
2017-03-09T00:57:29.855Z,869.29
2017-03-09T00:57:34.498Z,869.34